createdAt,value
2023-04-19T00:00:00.517Z,49.80
2023-04-19T00:02:27.208Z,49.90
2023-04-19T00:04:55.740Z,49.90
2023-04-19T00:07:22.496Z,49.90
2023-04-19T00:09:49.036Z,49.90
2023-04-19T00:12:15.661Z,48.50
2023-04-19T00:14:42.315Z,49.90
2023-04-19T00:17:08.888Z,50.50
2023-04-19T00:19:35.593Z,50.60
2023-04-19T00:22:02.189Z,50.40
2023-04-19T00:24:28.842Z,50.60
2023-04-19T00:26:55.450Z,49.70
2023-04-19T00:29:22.533Z,50.00
2023-04-19T00:31:49.059Z,53.20
2023-04-19T00:34:15.951Z,49.90
2023-04-19T00:36:42.684Z,49.90
2023-04-19T00:39:09.253Z,49.20
2023-04-19T00:41:35.841Z,50.00
2023-04-19T00:44:02.498Z,49.80
2023-04-19T00:46:29.216Z,49.90
2023-04-19T00:48:55.965Z,49.80
2023-04-19T00:51:22.619Z,49.70
2023-04-19T00:53:49.346Z,52.50
2023-04-19T00:56:16.965Z,55.10
2023-04-19T00:58:43.572Z,56.70
2023-04-19T01:01:10.107Z,57.20
2023-04-19T01:03:36.944Z,58.70
2023-04-19T01:06:03.790Z,56.90
2023-04-19T01:08:30.719Z,57.70
2023-04-19T01:10:57.287Z,58.50
2023-04-19T01:13:23.877Z,59.90
2023-04-19T01:15:51.619Z,57.90
2023-04-19T01:18:19.309Z,58.50
2023-04-19T01:20:45.938Z,58.30
2023-04-19T01:23:12.574Z,59.50
2023-04-19T01:25:39.602Z,59.90
2023-04-19T01:28:06.430Z,58.90
2023-04-19T01:30:33.043Z,60.40
2023-04-19T01:35:27.439Z,59.90
2023-04-19T01:37:56.132Z,59.90
2023-04-19T01:40:23.915Z,60.30
2023-04-19T01:42:50.483Z,60.40
2023-04-19T01:45:17.168Z,57.20
2023-04-19T01:47:43.764Z,59.90
2023-04-19T01:50:10.620Z,60.30
2023-04-19T01:55:04.724Z,61.80
2023-04-19T01:57:31.341Z,61.80
2023-04-19T01:59:57.905Z,63.00
2023-04-19T02:02:25.094Z,62.70
2023-04-19T02:04:51.778Z,62.60
2023-04-19T02:07:18.318Z,62.70
2023-04-19T02:09:44.917Z,62.50
2023-04-19T02:12:11.478Z,63.80
2023-04-19T02:14:38.017Z,63.30
2023-04-19T02:17:04.588Z,63.50
2023-04-19T02:19:31.165Z,64.40
2023-04-19T02:21:58.025Z,64.80
2023-04-19T02:24:24.874Z,65.80
2023-04-19T02:26:51.524Z,64.90
2023-04-19T02:29:18.247Z,63.80
2023-04-19T02:31:46.487Z,64.40
2023-04-19T02:34:13.348Z,64.10
2023-04-19T02:36:40.176Z,64.50
2023-04-19T02:39:06.854Z,64.60
2023-04-19T02:41:33.707Z,65.70
2023-04-19T02:44:00.464Z,66.50
2023-04-19T02:46:27.108Z,66.10
2023-04-19T02:48:53.697Z,66.70
2023-04-19T02:51:20.235Z,68.30
2023-04-19T02:53:46.799Z,68.40
2023-04-19T02:56:13.365Z,68.80
2023-04-19T02:58:39.932Z,68.30
2023-04-19T03:01:07.115Z,68.90
2023-04-19T03:03:33.878Z,68.90
2023-04-19T03:06:00.660Z,68.40
2023-04-19T03:08:27.324Z,68.30
2023-04-19T03:13:20.909Z,68.20
2023-04-19T03:15:47.625Z,68.70
2023-04-19T03:18:14.169Z,68.20
2023-04-19T03:20:40.772Z,69.90
2023-04-19T03:23:07.298Z,70.70
2023-04-19T03:25:33.938Z,70.80
2023-04-19T03:28:00.528Z,71.00
2023-04-19T03:30:27.116Z,71.40
2023-04-19T03:35:21.140Z,72.80
2023-04-19T03:40:14.865Z,73.80
2023-04-19T03:42:41.475Z,74.30
2023-04-19T03:45:08.344Z,74.80
2023-04-19T03:47:34.937Z,75.10
2023-04-19T03:50:02.433Z,75.90
2023-04-19T03:52:29.005Z,76.60
2023-04-19T03:54:55.715Z,76.60
2023-04-19T03:57:22.317Z,76.60
2023-04-19T03:59:48.868Z,76.60
2023-04-19T04:02:15.581Z,76.60
2023-04-19T04:04:42.573Z,76.60
2023-04-19T04:51:44.025Z,80.00
2023-04-19T06:29:57.876Z,72.00
2023-04-19T06:34:52.438Z,72.40
2023-04-19T06:42:13.000Z,73.20
2023-04-19T06:49:33.590Z,71.80
2023-04-19T06:54:27.142Z,72.00
2023-04-19T07:01:48.512Z,70.20
2023-04-19T07:04:16.153Z,70.60
2023-04-19T07:06:43.168Z,70.60
2023-04-19T07:09:09.753Z,71.10
2023-04-19T07:11:36.333Z,71.90
2023-04-19T07:14:02.912Z,71.10
2023-04-19T07:16:29.759Z,69.80
2023-04-19T07:21:32.739Z,68.80
2023-04-19T07:23:59.593Z,69.30
2023-04-19T07:26:26.127Z,69.90
2023-04-19T07:28:52.729Z,69.60
2023-04-19T07:31:19.444Z,69.00
2023-04-19T07:33:46.095Z,69.00
2023-04-19T07:38:39.783Z,65.90
2023-04-19T07:41:06.486Z,65.70
2023-04-19T07:43:33.409Z,66.40
2023-04-19T07:48:27.182Z,65.80
2023-04-19T07:50:53.972Z,67.10
2023-04-19T07:53:20.566Z,67.40
2023-04-19T07:58:14.833Z,65.40
2023-04-19T08:00:41.404Z,66.90
2023-04-19T08:03:08.123Z,67.80
2023-04-19T08:05:34.942Z,66.40
2023-04-19T08:08:01.515Z,66.00
2023-04-19T08:10:28.990Z,61.90
2023-04-19T08:20:28.695Z,54.50
2023-04-19T08:22:55.637Z,56.10
2023-04-19T08:25:26.830Z,57.50
2023-04-19T08:32:47.810Z,52.80
2023-04-19T08:42:37.325Z,68.40
2023-04-19T08:50:31.962Z,72.20
2023-04-19T08:58:46.470Z,61.50
2023-04-19T09:09:28.842Z,57.20
2023-04-19T09:25:02.612Z,59.90
2023-04-19T09:52:32.016Z,48.40
2023-04-19T09:55:01.090Z,41.60
2023-04-19T10:18:10.314Z,37.00
2023-04-19T10:23:06.918Z,35.30
2023-04-19T10:25:36.378Z,30.70
2023-04-19T10:47:46.092Z,1.00
2023-04-19T10:50:12.708Z,1.00
2023-04-19T10:52:39.256Z,1.00
2023-04-19T10:55:06.028Z,1.00
2023-04-19T10:57:52.587Z,1.00
2023-04-19T11:00:22.563Z,1.00
2023-04-19T11:02:49.258Z,1.00
2023-04-19T11:05:16.577Z,1.00
2023-04-19T11:07:45.844Z,1.00
2023-04-19T11:12:43.615Z,1.00
2023-04-19T11:15:10.623Z,1.00
2023-04-19T11:17:39.552Z,1.00
2023-04-19T11:20:10.204Z,1.00
2023-04-19T11:22:38.424Z,1.00
2023-04-19T11:25:09.046Z,1.00
2023-04-19T11:27:37.711Z,1.00
2023-04-19T11:30:05.796Z,1.00
2023-04-19T11:32:32.860Z,1.00
2023-04-19T11:35:05.018Z,1.00
2023-04-19T11:37:36.352Z,1.00
2023-04-19T11:40:05.547Z,1.00
2023-04-19T11:42:32.529Z,1.00
2023-04-19T11:44:59.882Z,1.00
2023-04-19T11:47:26.799Z,1.00
2023-04-19T11:49:55.487Z,1.00
2023-04-19T11:52:23.437Z,1.00
2023-04-19T11:54:50.860Z,1.00
2023-04-19T11:57:26.729Z,1.00
2023-04-19T12:00:22.921Z,1.00
2023-04-19T12:02:52.065Z,1.00
2023-04-19T12:05:18.971Z,1.00
2023-04-19T12:08:01.699Z,1.00
2023-04-19T12:10:28.458Z,1.00
2023-04-19T12:12:55.027Z,1.00
2023-04-19T12:15:24.455Z,1.00
2023-04-19T12:17:58.965Z,1.00
2023-04-19T12:20:29.430Z,1.00
2023-04-19T12:22:55.995Z,1.00
2023-04-19T12:25:22.890Z,1.00
2023-04-19T12:27:49.458Z,1.00
2023-04-19T12:30:16.118Z,1.00
2023-04-19T12:32:42.771Z,1.00
2023-04-19T12:35:09.613Z,1.00
2023-04-19T12:37:36.410Z,1.00
2023-04-19T12:40:04.015Z,1.00
2023-04-19T12:42:30.639Z,1.00
2023-04-19T12:44:57.362Z,1.00
2023-04-19T12:47:24.300Z,1.00
2023-04-19T12:49:51.281Z,1.00
2023-04-19T12:52:18.853Z,1.00
2023-04-19T12:54:45.465Z,1.00
2023-04-19T12:57:12.095Z,1.00
2023-04-19T12:59:38.745Z,1.00
2023-04-19T13:02:05.845Z,1.00
2023-04-19T13:04:32.547Z,1.00
2023-04-19T13:06:59.280Z,1.00
2023-04-19T13:09:27.356Z,1.00
2023-04-19T13:11:57.809Z,1.00
2023-04-19T13:14:26.293Z,1.00
2023-04-19T13:16:52.904Z,1.00
2023-04-19T13:19:19.566Z,1.00
2023-04-19T13:21:46.187Z,1.00
2023-04-19T13:24:12.818Z,1.00
2023-04-19T13:26:39.417Z,1.00
2023-04-19T13:29:08.401Z,1.00
2023-04-19T13:31:35.068Z,1.00
2023-04-19T13:34:01.875Z,1.00
2023-04-19T13:36:28.500Z,1.00
2023-04-19T13:38:56.403Z,1.00
2023-04-19T13:41:22.976Z,1.00
2023-04-19T13:43:49.558Z,1.00
2023-04-19T13:46:16.374Z,1.00
2023-04-19T13:48:42.995Z,1.00
2023-04-19T13:51:09.539Z,1.00
2023-04-19T13:53:36.117Z,1.00
2023-04-19T13:56:02.717Z,1.00
2023-04-19T13:58:29.290Z,1.00
2023-04-19T14:00:55.899Z,1.00
2023-04-19T14:03:23.212Z,1.00
2023-04-19T14:05:49.993Z,1.00
2023-04-19T14:08:16.724Z,1.00
2023-04-19T14:10:43.307Z,1.00
2023-04-19T14:13:09.869Z,1.00
2023-04-19T14:15:36.492Z,1.00
2023-04-19T14:18:03.249Z,1.00
2023-04-19T14:20:30.136Z,1.00
2023-04-19T14:22:58.900Z,1.00
2023-04-19T14:25:25.732Z,1.00
2023-04-19T14:27:52.289Z,1.00
2023-04-19T14:30:19.885Z,1.00
2023-04-19T14:32:46.549Z,1.00
2023-04-19T14:35:13.171Z,1.00
2023-04-19T14:37:40.014Z,1.00
2023-04-19T14:40:06.954Z,1.00
2023-04-19T14:42:33.595Z,1.00
2023-04-19T14:45:00.286Z,1.00
2023-04-19T14:47:26.882Z,1.00
2023-04-19T14:49:53.464Z,1.00
2023-04-19T14:52:20.170Z,1.00
2023-04-19T14:54:46.761Z,1.00
2023-04-19T14:57:13.864Z,1.00
2023-04-19T14:59:40.462Z,1.00
2023-04-19T15:02:07.448Z,1.00
2023-04-19T15:04:37.324Z,1.00
2023-04-19T15:07:06.570Z,1.00
2023-04-19T15:09:33.149Z,1.00
2023-04-19T15:11:59.700Z,1.00
2023-04-19T15:14:26.327Z,1.00
2023-04-19T15:16:52.924Z,1.00
2023-04-19T15:19:19.663Z,1.00
2023-04-19T15:21:46.434Z,1.00
2023-04-19T15:24:13.125Z,1.00
2023-04-19T15:26:40.364Z,1.00
2023-04-19T15:29:08.363Z,1.00
2023-04-19T15:31:35.038Z,1.00
2023-04-19T15:34:02.670Z,1.00
2023-04-19T15:36:29.269Z,1.00
2023-04-19T15:38:56.980Z,1.00
2023-04-19T15:41:23.674Z,1.00
2023-04-19T15:43:50.232Z,1.00
2023-04-19T15:46:16.829Z,1.00
2023-04-19T15:48:44.664Z,1.00
2023-04-19T15:51:11.472Z,1.00
2023-04-19T15:53:38.310Z,1.00
2023-04-19T15:56:05.402Z,1.00
2023-04-19T15:58:31.977Z,1.00
2023-04-19T16:00:58.559Z,1.00
2023-04-19T16:03:25.369Z,1.00
2023-04-19T16:05:52.039Z,1.00
2023-04-19T16:08:21.782Z,1.00
2023-04-19T16:10:48.751Z,1.00
2023-04-19T16:13:15.670Z,1.00
2023-04-19T16:15:43.103Z,1.00
2023-04-19T16:18:10.150Z,1.00
2023-04-19T16:20:37.420Z,1.00
2023-04-19T16:23:04.273Z,1.00
2023-04-19T16:25:31.284Z,1.00
2023-04-19T16:27:58.432Z,1.00
2023-04-19T16:30:26.674Z,1.00
2023-04-19T16:37:47.241Z,1.00
2023-04-19T16:47:36.094Z,1.00
2023-04-19T16:52:31.514Z,1.00
2023-04-19T17:04:47.468Z,1.00
2023-04-19T17:07:14.202Z,1.00
2023-04-19T17:09:40.749Z,1.00
2023-04-19T17:46:28.576Z,1.00
2023-04-19T17:51:22.420Z,1.00
2023-04-19T18:03:37.472Z,1.00
2023-04-19T18:25:41.203Z,1.00
2023-04-19T18:30:35.833Z,1.00
2023-04-19T18:33:02.440Z,1.00
2023-04-19T18:35:29.126Z,1.00
2023-04-19T18:37:56.249Z,1.00
2023-04-19T18:40:22.867Z,1.00
2023-04-19T18:42:49.558Z,1.00
2023-04-19T18:45:16.144Z,1.00
2023-04-19T18:47:42.875Z,1.00
2023-04-19T18:50:09.904Z,1.00
2023-04-19T18:52:37.363Z,1.00
2023-04-19T18:55:05.141Z,1.00
2023-04-19T19:00:01.758Z,1.00
2023-04-19T19:14:55.726Z,1.00
2023-04-19T19:17:24.131Z,1.00
2023-04-19T19:19:50.807Z,1.00
2023-04-19T19:22:26.313Z,1.00
2023-04-19T19:24:54.723Z,1.00
2023-04-19T19:27:21.508Z,1.00
2023-04-19T19:29:48.038Z,1.00
2023-04-19T19:32:15.299Z,1.00
2023-04-19T19:34:53.932Z,1.00
2023-04-19T19:37:22.792Z,1.00
2023-04-19T19:39:49.711Z,1.00
2023-04-19T19:42:16.767Z,1.00
2023-04-19T19:44:43.553Z,1.00
2023-04-19T19:47:11.070Z,1.00
2023-04-19T19:52:07.656Z,1.00
2023-04-19T19:54:35.473Z,1.00
2023-04-19T19:59:34.942Z,1.00
2023-04-19T20:04:31.183Z,1.00
2023-04-19T20:07:25.852Z,1.00
2023-04-19T20:09:45.274Z,1.00
2023-04-19T20:12:13.596Z,1.00
2023-04-19T20:14:40.666Z,1.00
2023-04-19T20:17:07.684Z,1.00
2023-04-19T20:19:35.854Z,1.00
2023-04-19T20:22:02.587Z,1.00
2023-04-19T20:24:29.848Z,1.00
2023-04-19T20:26:57.389Z,1.00
2023-04-19T20:29:24.053Z,1.00
2023-04-19T20:31:50.890Z,1.10
2023-04-19T20:34:17.710Z,1.20
2023-04-19T20:36:46.787Z,2.30
2023-04-19T20:39:13.707Z,2.90
2023-04-19T21:08:38.860Z,7.50
2023-04-19T21:13:32.893Z,8.40
2023-04-19T21:15:59.522Z,8.40
2023-04-19T21:20:56.869Z,9.80
2023-04-19T21:23:23.524Z,10.90
2023-04-19T21:25:50.205Z,12.20
2023-04-19T21:28:16.739Z,13.40
2023-04-19T21:30:43.452Z,14.00
2023-04-19T21:33:10.136Z,13.50
2023-04-19T21:35:36.687Z,13.70
2023-04-19T21:38:03.490Z,13.70
2023-04-19T21:40:30.189Z,14.80
2023-04-19T21:42:56.825Z,15.00
2023-04-19T21:45:23.921Z,15.50
2023-04-19T21:47:50.992Z,16.20
2023-04-19T21:50:17.748Z,15.30
2023-04-19T21:52:44.325Z,15.50
2023-04-19T21:55:10.850Z,16.20
2023-04-19T21:57:38.381Z,17.90
2023-04-19T22:00:11.240Z,17.80
2023-04-19T22:02:37.905Z,17.20
2023-04-19T22:05:07.067Z,17.70
2023-04-19T22:07:33.625Z,18.50
2023-04-19T22:10:03.453Z,19.40
2023-04-19T22:12:30.061Z,20.50
2023-04-19T22:14:56.864Z,21.70
2023-04-19T22:17:23.469Z,22.90
2023-04-19T22:19:51.467Z,23.00
2023-04-19T22:22:18.251Z,23.70
2023-04-19T22:24:57.048Z,24.70
2023-04-19T22:27:24.959Z,26.30
2023-04-19T22:29:51.611Z,26.20
2023-04-19T22:32:18.533Z,26.30
2023-04-19T22:34:45.629Z,26.30
2023-04-19T22:37:12.194Z,27.20
2023-04-19T22:39:38.736Z,27.00
2023-04-19T22:42:05.378Z,27.80
2023-04-19T22:44:31.968Z,29.00
2023-04-19T22:46:59.483Z,29.60
2023-04-19T22:49:26.011Z,30.40
2023-04-19T22:51:54.795Z,30.10
2023-04-19T22:54:21.506Z,29.90
2023-04-19T22:56:48.113Z,30.70
2023-04-19T22:59:15.136Z,32.10
2023-04-19T23:01:41.986Z,34.60
2023-04-19T23:04:08.733Z,35.80
2023-04-19T23:06:36.807Z,35.90
2023-04-19T23:09:03.564Z,35.80
2023-04-19T23:11:30.145Z,35.80
2023-04-19T23:13:56.735Z,35.90
2023-04-19T23:16:24.383Z,36.90
2023-04-19T23:18:51.072Z,38.00
2023-04-19T23:21:18.181Z,38.80
2023-04-19T23:23:44.820Z,39.20
2023-04-19T23:26:11.437Z,39.80
2023-04-19T23:28:37.981Z,39.50
2023-04-19T23:31:04.674Z,40.00
2023-04-19T23:33:31.298Z,40.40
2023-04-19T23:35:57.864Z,38.70
2023-04-19T23:38:24.437Z,40.90
2023-04-19T23:40:50.966Z,41.40
2023-04-19T23:43:17.558Z,41.20
2023-04-19T23:45:44.430Z,41.80
2023-04-19T23:48:10.981Z,42.50
2023-04-19T23:50:37.531Z,43.10
2023-04-19T23:53:05.440Z,43.00
2023-04-19T23:55:31.995Z,43.20
2023-04-19T23:57:58.600Z,43.40
